createdAt,value
2019-05-20T00:00:18.623Z,1.83
2019-05-20T00:02:49.253Z,1.97
2019-05-20T00:05:19.867Z,2.00
2019-05-20T00:07:50.509Z,2.00
2019-05-20T00:10:21.142Z,2.00
2019-05-20T00:12:51.777Z,2.20
2019-05-20T00:15:22.424Z,2.10
2019-05-20T00:17:53.034Z,1.80
2019-05-20T00:20:23.669Z,2.23
2019-05-20T00:22:54.362Z,2.10
2019-05-20T00:25:24.984Z,2.40
2019-05-20T00:27:55.637Z,2.40
2019-05-20T00:30:26.263Z,2.30
2019-05-20T00:32:56.889Z,2.10
2019-05-20T00:35:27.524Z,2.47
2019-05-20T00:37:58.120Z,2.27
2019-05-20T00:40:28.752Z,2.30
2019-05-20T00:42:59.378Z,2.33
2019-05-20T00:45:29.974Z,2.33
2019-05-20T00:48:00.617Z,2.40
2019-05-20T00:50:31.232Z,2.60
2019-05-20T00:53:01.861Z,2.53
2019-05-20T00:55:33.953Z,2.60
2019-05-20T00:58:04.842Z,2.50
2019-05-20T01:00:35.705Z,2.53
2019-05-20T01:03:06.314Z,2.30
2019-05-20T01:05:36.952Z,2.40
2019-05-20T01:08:07.559Z,2.57
2019-05-20T01:10:38.215Z,2.20
2019-05-20T01:13:08.857Z,2.20
2019-05-20T01:15:39.601Z,2.30
2019-05-20T01:18:10.139Z,2.20
2019-05-20T01:20:40.900Z,2.53
2019-05-20T01:23:11.493Z,2.30
2019-05-20T01:25:42.138Z,2.30
2019-05-20T01:28:12.771Z,2.30
2019-05-20T01:30:43.435Z,2.43
2019-05-20T01:33:14.588Z,2.30
2019-05-20T01:35:45.295Z,2.30
2019-05-20T01:38:16.929Z,2.57
2019-05-20T01:40:47.566Z,2.27
2019-05-20T01:43:18.214Z,2.20
2019-05-20T01:45:48.854Z,2.53
2019-05-20T01:48:19.465Z,2.50
2019-05-20T01:50:50.140Z,2.67
2019-05-20T01:53:20.747Z,2.60
2019-05-20T01:55:51.378Z,2.80
2019-05-20T01:58:21.975Z,2.80
2019-05-20T02:00:52.634Z,2.60
2019-05-20T02:03:31.758Z,2.37
2019-05-20T02:05:56.468Z,2.57
2019-05-20T02:08:27.073Z,2.80
2019-05-20T02:10:57.721Z,3.00
2019-05-20T02:13:47.199Z,3.13
2019-05-20T02:16:18.492Z,3.67
2019-05-20T02:18:49.090Z,3.77
2019-05-20T02:21:19.827Z,3.33
2019-05-20T02:23:50.496Z,3.20
2019-05-20T02:26:21.078Z,3.77
2019-05-20T02:28:51.702Z,4.17
2019-05-20T02:31:22.335Z,3.70
2019-05-20T02:33:53.217Z,4.00
2019-05-20T02:36:24.768Z,3.90
2019-05-20T02:38:55.391Z,4.13
2019-05-20T02:41:26.372Z,4.07
2019-05-20T02:43:57.027Z,4.30
2019-05-20T02:46:27.671Z,3.77
2019-05-20T02:48:58.317Z,4.03
2019-05-20T02:51:31.983Z,4.40
2019-05-20T02:54:03.588Z,4.23
2019-05-20T02:56:34.197Z,3.90
2019-05-20T02:59:04.911Z,4.30
2019-05-20T03:01:35.554Z,4.10
2019-05-20T03:04:12.680Z,4.10
2019-05-20T03:06:39.142Z,3.80
2019-05-20T03:09:12.220Z,4.73
2019-05-20T03:11:42.065Z,4.40
2019-05-20T03:14:12.668Z,4.60
2019-05-20T03:16:43.299Z,4.50
2019-05-20T03:19:13.916Z,4.30
2019-05-20T03:21:44.586Z,4.33
2019-05-20T03:24:15.184Z,4.30
2019-05-20T03:26:45.917Z,4.50
2019-05-20T03:29:16.537Z,4.70
2019-05-20T03:31:47.187Z,4.67
2019-05-20T03:34:41.932Z,4.73
2019-05-20T03:36:50.038Z,4.87
2019-05-20T03:39:20.684Z,4.60
2019-05-20T03:41:51.271Z,4.60
2019-05-20T03:44:21.892Z,5.47
2019-05-20T03:46:52.512Z,4.63
2019-05-20T03:49:23.135Z,5.10
2019-05-20T03:51:53.784Z,4.70
2019-05-20T03:54:24.424Z,5.23
2019-05-20T03:56:55.049Z,5.03
2019-05-20T03:59:25.687Z,4.93
2019-05-20T04:01:56.272Z,4.67
2019-05-20T04:04:26.921Z,4.80
2019-05-20T04:06:57.511Z,5.00
2019-05-20T04:09:28.186Z,4.67
2019-05-20T04:11:58.745Z,5.10
2019-05-20T04:14:29.366Z,5.50
2019-05-20T04:17:00.008Z,5.23
2019-05-20T04:19:30.693Z,5.03
2019-05-20T04:22:01.310Z,5.37
2019-05-20T04:24:31.897Z,5.10
2019-05-20T04:27:02.555Z,5.27
2019-05-20T04:29:33.238Z,5.17
2019-05-20T04:32:03.950Z,5.80
2019-05-20T04:34:34.547Z,6.03
2019-05-20T04:37:05.264Z,5.50
2019-05-20T04:39:35.876Z,5.70
2019-05-20T04:44:49.240Z,5.97
2019-05-20T04:47:19.885Z,5.80
2019-05-20T04:49:50.492Z,6.23
2019-05-20T04:52:21.108Z,5.40
2019-05-20T04:54:51.764Z,5.53
2019-05-20T04:57:22.386Z,5.20
2019-05-20T04:59:53.034Z,5.40
2019-05-20T05:02:23.646Z,4.77
2019-05-20T05:04:54.293Z,5.73
2019-05-20T05:07:24.945Z,5.60
2019-05-20T05:09:55.541Z,6.13
2019-05-20T05:12:26.240Z,5.63
2019-05-20T05:14:56.924Z,5.73
2019-05-20T05:17:27.676Z,5.53
2019-05-20T05:19:58.271Z,5.27
2019-05-20T05:22:28.903Z,5.43
2019-05-20T05:24:59.531Z,5.80
2019-05-20T05:27:30.141Z,5.60
2019-05-20T05:30:00.769Z,5.83
2019-05-20T05:32:43.957Z,5.53
2019-05-20T05:35:16.042Z,5.90
2019-05-20T05:37:46.830Z,5.47
2019-05-20T05:40:17.577Z,6.00
2019-05-20T05:42:48.227Z,6.13
2019-05-20T05:45:22.878Z,5.93
2019-05-20T05:47:53.509Z,5.40
2019-05-20T05:50:24.154Z,5.90
2019-05-20T05:52:54.767Z,5.70
2019-05-20T05:55:25.431Z,5.70
2019-05-20T05:57:56.079Z,5.43
2019-05-20T06:00:26.873Z,5.30
2019-05-20T06:02:57.497Z,5.37
2019-05-20T06:05:31.476Z,5.33
2019-05-20T06:08:00.430Z,5.03
2019-05-20T06:10:31.086Z,5.20
2019-05-20T06:13:01.700Z,5.30
2019-05-20T06:15:32.443Z,5.87
2019-05-20T06:18:03.407Z,5.10
2019-05-20T06:20:34.131Z,4.70
2019-05-20T06:23:04.908Z,5.00
2019-05-20T06:25:35.642Z,4.83
2019-05-20T06:28:06.307Z,5.07
2019-05-20T06:30:44.873Z,4.60
2019-05-20T06:33:15.521Z,4.40
2019-05-20T06:35:46.450Z,4.97
2019-05-20T06:38:39.984Z,4.80
2019-05-20T06:41:10.633Z,4.70
2019-05-20T06:46:23.309Z,4.23
2019-05-20T06:48:53.944Z,4.43
2019-05-20T06:51:24.553Z,4.20
2019-05-20T06:53:55.209Z,4.57
2019-05-20T06:56:25.881Z,4.37
2019-05-20T06:58:56.555Z,4.77
2019-05-20T07:01:27.136Z,4.60
2019-05-20T07:03:57.774Z,4.60
2019-05-20T07:06:44.832Z,4.63
2019-05-20T07:09:00.613Z,4.63
2019-05-20T07:11:32.879Z,4.20
2019-05-20T07:14:03.640Z,3.90
2019-05-20T07:16:35.244Z,4.23
2019-05-20T07:19:06.113Z,4.23
2019-05-20T07:21:36.841Z,4.13
2019-05-20T07:24:07.422Z,3.80
2019-05-20T07:26:38.039Z,3.80
2019-05-20T07:29:08.687Z,4.10
2019-05-20T07:31:39.299Z,3.37
2019-05-20T07:34:09.911Z,3.63
2019-05-20T07:36:40.516Z,3.90
2019-05-20T07:39:11.160Z,3.50
2019-05-20T07:41:42.040Z,3.70
2019-05-20T07:44:12.701Z,3.33
2019-05-20T07:46:43.419Z,4.13
2019-05-20T07:49:14.534Z,2.83
2019-05-20T07:51:45.834Z,2.83
2019-05-20T07:54:17.335Z,3.10
2019-05-20T07:56:49.495Z,2.80
2019-05-20T07:59:24.142Z,3.07
2019-05-20T08:01:54.786Z,3.23
2019-05-20T08:04:25.599Z,2.80
2019-05-20T08:06:56.269Z,2.50
2019-05-20T08:09:26.930Z,2.27
2019-05-20T08:11:57.505Z,2.10
2019-05-20T08:14:28.133Z,2.40
2019-05-20T08:16:58.696Z,2.60
2019-05-20T08:19:29.375Z,4.00
2019-05-20T08:21:59.967Z,2.60
2019-05-20T08:24:30.611Z,2.60
2019-05-20T08:27:01.265Z,2.70
2019-05-20T08:29:31.875Z,3.00
2019-05-20T08:32:02.477Z,2.70
2019-05-20T08:34:33.589Z,2.70
2019-05-20T08:37:05.451Z,2.93
2019-05-20T08:39:36.064Z,2.90
2019-05-20T08:42:06.714Z,2.70
2019-05-20T08:44:37.330Z,2.97
2019-05-20T08:47:07.972Z,3.00
2019-05-20T08:49:38.792Z,2.57
2019-05-20T08:52:09.616Z,2.90
2019-05-20T08:54:40.587Z,3.03
2019-05-20T08:57:11.215Z,2.40
2019-05-20T08:59:41.827Z,2.30
2019-05-20T09:02:12.459Z,2.40
2019-05-20T09:07:18.847Z,2.80
2019-05-20T09:09:49.484Z,2.60
2019-05-20T09:12:20.093Z,2.50
2019-05-20T09:14:50.705Z,2.30
2019-05-20T09:17:21.331Z,2.10
2019-05-20T09:19:51.936Z,2.00
2019-05-20T09:22:23.047Z,2.07
2019-05-20T09:24:53.796Z,2.47
2019-05-20T09:27:24.431Z,2.17
2019-05-20T09:29:55.138Z,2.23
2019-05-20T09:32:25.689Z,2.63
2019-05-20T09:34:56.440Z,1.80
2019-05-20T09:37:27.169Z,1.83
2019-05-20T09:39:57.795Z,2.10
2019-05-20T09:42:28.479Z,1.90
2019-05-20T09:45:02.912Z,1.90
2019-05-20T09:47:31.405Z,2.10
2019-05-20T09:50:02.282Z,2.20
2019-05-20T09:52:33.252Z,2.20
2019-05-20T09:55:05.718Z,1.83
2019-05-20T09:57:36.326Z,1.67
2019-05-20T10:00:07.696Z,2.07
2019-05-20T10:02:39.394Z,1.90
2019-05-20T10:05:10.022Z,1.63
2019-05-20T10:07:40.598Z,1.80
2019-05-20T10:10:11.458Z,1.80
2019-05-20T10:12:46.628Z,1.77
2019-05-20T10:15:14.549Z,1.83
2019-05-20T10:17:45.177Z,1.80
2019-05-20T10:20:16.645Z,1.80
2019-05-20T10:22:47.325Z,1.80
2019-05-20T10:25:18.037Z,2.00
2019-05-20T10:27:48.647Z,1.80
2019-05-20T10:30:19.546Z,1.77
2019-05-20T10:35:24.322Z,2.00
2019-05-20T10:37:54.946Z,1.87
2019-05-20T10:40:25.675Z,1.83
2019-05-20T10:42:56.315Z,1.90
2019-05-20T10:45:26.931Z,2.03
2019-05-20T10:47:57.543Z,1.77
2019-05-20T10:50:28.193Z,2.20
2019-05-20T10:52:58.810Z,2.00
2019-05-20T10:55:29.451Z,1.93
2019-05-20T10:58:00.084Z,1.90
2019-05-20T11:00:30.803Z,1.77
2019-05-20T11:03:01.412Z,2.03
2019-05-20T11:05:32.030Z,2.20
2019-05-20T11:08:03.631Z,2.13
2019-05-20T11:10:34.284Z,2.17
2019-05-20T11:13:04.870Z,2.20
2019-05-20T11:15:35.484Z,2.20
2019-05-20T11:20:54.831Z,2.57
2019-05-20T11:23:25.408Z,2.10
2019-05-20T11:25:56.041Z,2.20
2019-05-20T11:28:26.619Z,1.80
2019-05-20T11:30:57.351Z,2.10
2019-05-20T11:33:27.942Z,1.80
2019-05-20T11:35:58.581Z,1.60
2019-05-20T11:38:29.313Z,1.33
2019-05-20T11:40:59.972Z,1.80
2019-05-20T11:43:31.578Z,2.00
2019-05-20T11:46:03.247Z,1.60
2019-05-20T11:51:22.582Z,1.20
2019-05-20T11:53:53.155Z,1.53
2019-05-20T11:56:23.793Z,1.20
2019-05-20T12:01:36.574Z,1.40
2019-05-20T12:04:07.276Z,1.60
2019-05-20T12:06:37.859Z,1.37
2019-05-20T12:09:08.692Z,1.40
2019-05-20T12:11:39.317Z,1.70
2019-05-20T12:14:09.879Z,1.60
2019-05-20T12:16:40.526Z,1.47
2019-05-20T12:19:11.198Z,1.43
2019-05-20T12:21:41.771Z,1.63
2019-05-20T12:24:12.413Z,1.60
2019-05-20T12:26:42.991Z,1.60
2019-05-20T12:29:13.656Z,1.30
2019-05-20T12:31:44.272Z,1.70
2019-05-20T12:34:14.911Z,1.37
2019-05-20T12:36:45.543Z,1.50
2019-05-20T12:39:16.187Z,1.60
2019-05-20T12:41:46.838Z,1.73
2019-05-20T12:44:17.518Z,1.50
2019-05-20T12:46:48.107Z,1.60
2019-05-20T12:49:18.830Z,1.43
2019-05-20T12:51:49.558Z,1.80
2019-05-20T12:54:20.156Z,1.83
2019-05-20T12:56:50.817Z,1.40
2019-05-20T12:59:21.440Z,1.90
2019-05-20T13:01:52.112Z,1.80
2019-05-20T13:04:22.730Z,1.30
2019-05-20T13:06:53.338Z,1.27
2019-05-20T13:09:23.948Z,1.60
2019-05-20T13:11:54.685Z,1.50
2019-05-20T13:14:25.288Z,1.10
2019-05-20T13:16:55.917Z,1.40
2019-05-20T13:19:26.512Z,1.43
2019-05-20T13:21:57.129Z,1.40
2019-05-20T16:38:45.623Z,2.20
2019-05-20T16:41:16.373Z,2.25
2019-05-20T16:43:47.123Z,2.10
2019-05-20T16:46:17.736Z,2.03
2019-05-20T16:48:48.366Z,2.53
2019-05-20T16:51:21.987Z,2.10
2019-05-20T16:53:51.381Z,2.50
2019-05-20T16:56:22.115Z,2.02
2019-05-20T16:58:53.757Z,2.70
2019-05-20T17:01:24.487Z,2.30
2019-05-20T17:03:55.534Z,2.57
2019-05-20T17:06:27.649Z,2.97
2019-05-20T17:08:58.446Z,2.60
2019-05-20T17:11:29.054Z,3.20
2019-05-20T17:13:59.729Z,3.57
2019-05-20T17:16:30.353Z,3.40
2019-05-20T17:19:00.989Z,3.47
2019-05-20T17:21:31.649Z,3.10
2019-05-20T17:24:02.322Z,2.80
2019-05-20T17:26:32.971Z,2.20
2019-05-20T17:29:03.678Z,2.60
2019-05-20T17:31:35.351Z,2.27
2019-05-20T17:34:05.997Z,2.50
2019-05-20T17:36:36.634Z,2.62
2019-05-20T17:39:08.250Z,2.40
2019-05-20T17:41:38.876Z,2.70
2019-05-20T17:44:09.499Z,2.30
2019-05-20T17:46:40.259Z,2.30
2019-05-20T17:49:10.889Z,2.33
2019-05-20T17:51:43.403Z,2.00
2019-05-20T17:54:13.808Z,2.47
2019-05-20T17:56:44.499Z,2.17
2019-05-20T17:59:15.169Z,1.90
2019-05-20T18:01:47.114Z,2.00
2019-05-20T18:04:18.217Z,1.93
2019-05-20T18:06:48.864Z,1.80
2019-05-20T18:09:20.481Z,1.90
2019-05-20T18:11:51.108Z,2.03
2019-05-20T18:14:21.890Z,2.03
2019-05-20T18:16:52.838Z,1.90
2019-05-20T18:19:23.821Z,1.73
2019-05-20T18:21:54.472Z,2.00
2019-05-20T18:24:25.127Z,1.67
2019-05-20T18:26:55.823Z,2.00
2019-05-20T18:29:26.463Z,1.83
2019-05-20T18:31:57.134Z,1.93
2019-05-20T18:34:27.768Z,1.70
2019-05-20T18:36:58.485Z,1.80
2019-05-20T18:39:29.182Z,1.80
2019-05-20T18:41:59.918Z,2.27
2019-05-20T18:44:30.679Z,2.50
2019-05-20T18:47:01.332Z,2.00
2019-05-20T18:49:32.306Z,1.70
2019-05-20T18:52:03.029Z,1.80
2019-05-20T18:54:33.944Z,1.80
2019-05-20T18:57:05.102Z,1.87
2019-05-20T18:59:35.729Z,1.90
2019-05-20T19:02:06.470Z,2.10
2019-05-20T19:04:38.612Z,2.20
2019-05-20T19:07:09.533Z,2.30
2019-05-20T19:09:40.257Z,2.07
2019-05-20T19:12:11.347Z,2.77
2019-05-20T19:14:42.159Z,2.37
2019-05-20T19:17:14.105Z,2.73
2019-05-20T19:19:46.182Z,2.20
2019-05-20T19:22:16.803Z,2.67
2019-05-20T19:24:47.468Z,2.60
2019-05-20T19:27:18.166Z,2.60
2019-05-20T19:29:49.914Z,1.80
2019-05-20T19:32:21.641Z,1.90
2019-05-20T19:34:52.359Z,1.73
2019-05-20T19:37:23.161Z,1.80
2019-05-20T19:39:53.954Z,1.70
2019-05-20T19:42:24.595Z,2.10
2019-05-20T19:44:55.212Z,2.00
2019-05-20T19:47:25.903Z,13.30
2019-05-20T19:49:56.801Z,2.30
2019-05-20T19:52:27.630Z,1.87
2019-05-20T19:54:58.415Z,2.17
2019-05-20T19:57:29.500Z,3.30
2019-05-20T20:00:00.175Z,2.07
2019-05-20T20:02:31.074Z,2.53
2019-05-20T20:05:01.898Z,2.27
2019-05-20T20:07:32.889Z,2.17
2019-05-20T20:10:03.604Z,2.10
2019-05-20T20:12:34.436Z,2.00
2019-05-20T20:15:06.045Z,1.90
2019-05-20T20:17:36.772Z,2.27
2019-05-20T20:20:08.545Z,2.10
2019-05-20T20:22:39.193Z,2.40
2019-05-20T20:25:10.065Z,3.80
2019-05-20T20:27:40.994Z,4.87
2019-05-20T20:30:12.113Z,11.40
2019-05-20T20:32:42.727Z,3.17
2019-05-20T20:35:13.670Z,2.20
2019-05-20T20:37:44.538Z,1.93
2019-05-20T20:40:16.837Z,2.70
2019-05-20T20:42:47.678Z,2.77
2019-05-20T20:45:18.367Z,2.43
2019-05-20T20:47:49.325Z,2.40
2019-05-20T20:50:20.550Z,2.43
2019-05-20T20:52:51.669Z,2.50
2019-05-20T20:55:22.496Z,2.70
2019-05-20T20:57:53.457Z,2.23
2019-05-20T21:00:24.228Z,2.60
2019-05-20T21:02:55.156Z,2.30
2019-05-20T21:05:26.789Z,2.37
2019-05-20T21:07:57.759Z,2.40
2019-05-20T21:10:28.384Z,2.57
2019-05-20T21:12:59.039Z,2.20
2019-05-20T21:15:29.710Z,2.30
2019-05-20T21:18:00.359Z,2.40
2019-05-20T21:20:31.026Z,2.07
2019-05-20T21:23:01.709Z,2.40
2019-05-20T21:25:32.574Z,2.20
2019-05-20T21:28:03.278Z,2.10
2019-05-20T21:30:33.942Z,2.47
2019-05-20T21:33:09.135Z,2.60
2019-05-20T21:35:37.146Z,2.27
2019-05-20T21:38:07.738Z,2.27
2019-05-20T21:40:39.435Z,1.60
2019-05-20T21:43:10.128Z,1.93
2019-05-20T21:45:40.765Z,1.90
2019-05-20T21:48:11.390Z,1.80
2019-05-20T21:50:42.432Z,1.70
2019-05-20T21:53:14.218Z,1.90
2019-05-20T21:55:44.895Z,1.80
2019-05-20T21:58:15.682Z,1.80
2019-05-20T22:00:51.349Z,1.87
2019-05-20T22:03:24.974Z,2.00
2019-05-20T22:05:54.560Z,2.03
2019-05-20T22:08:25.325Z,1.90
2019-05-20T22:10:56.260Z,2.00
2019-05-20T22:13:27.162Z,1.90
2019-05-20T22:15:57.776Z,2.23
2019-05-20T22:18:28.420Z,2.20
2019-05-20T22:20:59.108Z,2.13
2019-05-20T22:23:47.671Z,2.00
2019-05-20T22:26:18.347Z,1.97
2019-05-20T22:28:49.011Z,2.30
2019-05-20T22:31:19.728Z,2.07
2019-05-20T22:33:50.389Z,2.07
2019-05-20T22:36:21.078Z,2.17
2019-05-20T22:38:51.744Z,2.20
2019-05-20T22:41:22.695Z,2.10
2019-05-20T22:43:53.328Z,2.23
2019-05-20T22:46:24.016Z,1.90
2019-05-20T22:48:54.853Z,2.20
2019-05-20T22:51:25.733Z,2.20
2019-05-20T22:53:56.624Z,2.10
2019-05-20T22:56:27.253Z,2.10
2019-05-20T22:58:57.935Z,2.03
2019-05-20T23:01:28.545Z,2.00
2019-05-20T23:03:59.252Z,2.37
2019-05-20T23:06:30.315Z,2.30
2019-05-20T23:09:00.958Z,2.23
2019-05-20T23:11:33.339Z,2.10
2019-05-20T23:14:04.179Z,2.10
2019-05-20T23:16:35.205Z,1.97
2019-05-20T23:19:05.891Z,2.17
2019-05-20T23:21:36.476Z,2.40
2019-05-20T23:24:07.182Z,2.60
2019-05-20T23:26:37.869Z,2.43
2019-05-20T23:29:08.819Z,2.43
2019-05-20T23:31:39.423Z,2.60
2019-05-20T23:34:13.116Z,2.73
2019-05-20T23:36:42.491Z,2.80
2019-05-20T23:39:13.377Z,2.90
2019-05-20T23:41:44.187Z,3.07
2019-05-20T23:44:15.065Z,2.93
2019-05-20T23:46:45.759Z,3.20
2019-05-20T23:49:16.513Z,2.60
2019-05-20T23:51:47.117Z,2.60
2019-05-20T23:54:17.729Z,2.77
2019-05-20T23:56:48.686Z,3.10
2019-05-20T23:59:19.622Z,2.53
